createdAt,value
2017-07-08T00:01:41.773Z,19.10
2017-07-08T00:04:10.106Z,18.00
2017-07-08T00:06:38.469Z,17.50
2017-07-08T00:09:07.129Z,18.23
2017-07-08T00:11:35.459Z,18.20
2017-07-08T00:14:03.822Z,18.57
2017-07-08T00:16:32.888Z,20.00
2017-07-08T00:19:01.217Z,21.40
2017-07-08T00:21:29.573Z,20.57
2017-07-08T00:23:58.590Z,22.10
2017-07-08T00:26:26.946Z,22.33
2017-07-08T00:28:55.274Z,22.47
2017-07-08T00:31:23.958Z,22.70
2017-07-08T00:33:52.326Z,21.97
2017-07-08T00:36:20.670Z,22.27
2017-07-08T00:38:49.736Z,23.33
2017-07-08T00:41:18.065Z,22.93
2017-07-08T00:43:46.407Z,20.60
2017-07-08T00:46:15.084Z,20.87
2017-07-08T00:48:43.418Z,21.03
2017-07-08T00:51:11.765Z,22.07
2017-07-08T00:53:40.453Z,20.60
2017-07-08T00:56:08.819Z,21.20
2017-07-08T00:58:37.169Z,22.27
2017-07-08T01:01:06.165Z,23.10
2017-07-08T01:03:34.526Z,22.70
2017-07-08T01:06:03.636Z,23.27
2017-07-08T01:08:33.258Z,23.93
2017-07-08T01:11:01.590Z,23.53
2017-07-08T01:13:29.931Z,24.50
2017-07-08T01:15:58.615Z,24.00
2017-07-08T01:18:26.989Z,23.90
2017-07-08T01:20:55.339Z,22.43
2017-07-08T01:23:24.434Z,22.93
2017-07-08T01:25:52.771Z,24.93
2017-07-08T01:28:21.113Z,26.00
2017-07-08T01:30:49.806Z,28.70
2017-07-08T01:33:18.152Z,25.03
2017-07-08T01:35:47.362Z,28.93
2017-07-08T01:38:16.042Z,29.00
2017-07-08T01:40:44.422Z,27.70
2017-07-08T01:43:12.765Z,29.20
2017-07-08T01:45:41.547Z,30.80
2017-07-08T01:48:09.908Z,29.73
2017-07-08T01:50:38.249Z,30.50
2017-07-08T01:53:07.204Z,30.60
2017-07-08T01:55:35.570Z,29.10
2017-07-08T01:58:03.914Z,30.97
2017-07-08T02:00:32.615Z,27.83
2017-07-08T02:03:00.978Z,30.13
2017-07-08T02:05:29.328Z,29.80
2017-07-08T02:07:58.241Z,29.90
2017-07-08T02:10:26.580Z,28.87
2017-07-08T02:12:54.930Z,31.93
2017-07-08T02:15:23.592Z,29.30
2017-07-08T02:17:52.006Z,27.40
2017-07-08T02:20:20.371Z,28.10
2017-07-08T02:22:49.133Z,27.90
2017-07-08T02:25:17.488Z,28.10
2017-07-08T02:27:45.836Z,25.43
2017-07-08T02:30:14.690Z,26.40
2017-07-08T02:32:43.025Z,25.27
2017-07-08T02:35:11.383Z,25.63
2017-07-08T02:37:40.045Z,28.93
2017-07-08T02:40:08.378Z,29.37
2017-07-08T02:42:36.738Z,27.70
2017-07-08T02:45:05.472Z,30.37
2017-07-08T02:47:33.823Z,28.10
2017-07-08T02:50:02.167Z,31.73
2017-07-08T02:52:30.897Z,31.10
2017-07-08T02:54:59.247Z,31.63
2017-07-08T02:57:27.575Z,33.60
2017-07-08T02:59:56.973Z,32.77
2017-07-08T03:02:25.308Z,32.80
2017-07-08T03:04:53.630Z,33.50
2017-07-08T03:07:22.257Z,34.00
2017-07-08T03:09:50.612Z,33.80
2017-07-08T03:12:18.942Z,34.87
2017-07-08T03:14:47.783Z,33.50
2017-07-08T03:17:16.124Z,35.30
2017-07-08T03:19:44.455Z,39.07
2017-07-08T03:22:13.078Z,38.80
2017-07-08T03:24:41.435Z,39.73
2017-07-08T03:27:09.765Z,39.70
2017-07-08T03:29:38.438Z,44.00
2017-07-08T03:32:07.545Z,45.30
2017-07-08T03:34:36.637Z,45.30
2017-07-08T03:37:06.386Z,43.13
2017-07-08T03:39:34.744Z,42.30
2017-07-08T03:42:03.086Z,47.23
2017-07-08T03:44:31.753Z,45.50
2017-07-08T03:47:00.081Z,43.73
2017-07-08T03:49:29.192Z,44.33
2017-07-08T03:51:57.850Z,42.80
2017-07-08T03:54:26.941Z,42.97
2017-07-08T03:56:56.080Z,42.17
2017-07-08T03:59:24.802Z,43.60
2017-07-08T04:01:53.154Z,44.07
2017-07-08T04:04:21.477Z,40.60
2017-07-08T04:06:50.909Z,43.73
2017-07-08T04:09:19.255Z,41.40
2017-07-08T04:11:48.379Z,42.17
2017-07-08T04:14:17.172Z,41.50
2017-07-08T04:16:45.515Z,42.00
2017-07-08T04:19:13.869Z,42.93
2017-07-08T04:21:42.694Z,40.80
2017-07-08T04:24:11.066Z,37.77
2017-07-08T04:26:39.453Z,40.10
2017-07-08T04:29:08.103Z,38.70
2017-07-08T04:31:36.474Z,40.30
2017-07-08T04:34:04.815Z,37.50
2017-07-08T04:36:33.726Z,38.23
2017-07-08T04:39:02.069Z,38.60
2017-07-08T04:41:30.417Z,37.63
2017-07-08T04:43:59.207Z,37.10
2017-07-08T04:46:27.558Z,37.97
2017-07-08T04:48:55.886Z,35.63
2017-07-08T04:51:24.800Z,37.07
2017-07-08T04:53:53.139Z,37.80
2017-07-08T04:56:21.479Z,36.77
2017-07-08T04:58:50.243Z,35.40
2017-07-08T05:01:18.586Z,34.97
2017-07-08T05:03:46.927Z,36.33
2017-07-08T05:06:16.087Z,35.27
2017-07-08T05:08:44.435Z,35.27
2017-07-08T05:11:12.797Z,36.53
2017-07-08T05:13:41.543Z,36.80
2017-07-08T05:16:09.887Z,39.60
2017-07-08T05:18:38.247Z,38.37
2017-07-08T05:21:06.990Z,39.50
2017-07-08T05:23:35.335Z,39.03
2017-07-08T05:26:03.702Z,37.20
2017-07-08T05:28:32.417Z,37.03
2017-07-08T05:31:00.777Z,39.83
2017-07-08T05:33:29.106Z,38.70
2017-07-08T05:35:57.795Z,37.77
2017-07-08T05:38:26.144Z,35.30
2017-07-08T05:40:54.510Z,35.63
2017-07-08T05:43:23.139Z,35.90
2017-07-08T05:45:51.499Z,36.00
2017-07-08T05:48:19.858Z,35.50
2017-07-08T05:50:48.893Z,34.50
2017-07-08T05:53:17.274Z,35.57
2017-07-08T05:55:45.781Z,37.00
2017-07-08T05:58:14.466Z,34.67
2017-07-08T06:00:42.810Z,36.00
2017-07-08T06:03:11.161Z,37.73
2017-07-08T06:05:39.805Z,40.23
2017-07-08T06:08:08.143Z,39.73
2017-07-08T06:10:36.510Z,40.73
2017-07-08T06:13:05.483Z,41.80
2017-07-08T06:15:33.820Z,41.37
2017-07-08T06:18:02.180Z,41.37
2017-07-08T06:20:31.174Z,40.13
2017-07-08T06:22:59.504Z,40.67
2017-07-08T06:25:27.859Z,43.57
2017-07-08T06:27:56.609Z,44.10
2017-07-08T06:30:24.943Z,42.13
2017-07-08T06:32:53.302Z,43.60
2017-07-08T06:35:22.077Z,44.37
2017-07-08T06:37:50.406Z,43.60
2017-07-08T06:40:18.788Z,44.53
2017-07-08T06:42:47.542Z,44.47
2017-07-08T06:45:15.889Z,45.33
2017-07-08T06:47:44.272Z,46.03
2017-07-08T06:50:13.056Z,42.20
2017-07-08T06:52:42.162Z,40.47
2017-07-08T06:55:10.535Z,45.63
2017-07-08T06:57:39.528Z,39.70
2017-07-08T07:00:07.890Z,40.13
2017-07-08T07:02:36.268Z,41.93
2017-07-08T07:05:05.686Z,39.97
2017-07-08T07:07:34.058Z,39.90
2017-07-08T07:10:03.187Z,37.30
2017-07-08T07:12:31.874Z,35.93
2017-07-08T07:15:00.234Z,34.37
2017-07-08T07:17:28.591Z,33.77
2017-07-08T07:19:57.388Z,33.30
2017-07-08T07:22:25.738Z,29.93
2017-07-08T07:24:54.085Z,28.87
2017-07-08T07:27:22.919Z,25.13
2017-07-08T07:29:52.064Z,24.17
2017-07-08T07:32:20.418Z,23.00
2017-07-08T07:34:49.102Z,21.57
2017-07-08T07:37:17.443Z,20.73
2017-07-08T07:39:45.811Z,21.27
2017-07-08T07:42:14.769Z,21.53
2017-07-08T07:44:43.100Z,18.07
2017-07-08T07:47:11.449Z,19.20
2017-07-08T07:49:40.207Z,17.53
2017-07-08T07:52:08.542Z,18.73
2017-07-08T07:54:36.894Z,18.17
2017-07-08T07:57:05.537Z,16.70
2017-07-08T07:59:34.647Z,15.47
2017-07-08T08:02:02.997Z,15.40
2017-07-08T08:04:32.123Z,15.20
2017-07-08T08:07:00.459Z,14.00
2017-07-08T08:09:28.803Z,14.47
2017-07-08T08:11:57.562Z,12.87
2017-07-08T08:14:25.912Z,12.50
2017-07-08T08:16:54.243Z,11.83
2017-07-08T08:19:22.860Z,12.30
2017-07-08T08:21:51.213Z,11.10
2017-07-08T08:24:19.562Z,10.83
2017-07-08T08:26:48.711Z,11.80
2017-07-08T08:29:17.085Z,12.03
2017-07-08T08:31:45.432Z,10.73
2017-07-08T08:34:14.099Z,11.10
2017-07-08T08:36:42.612Z,11.83
2017-07-08T08:39:10.962Z,11.10
2017-07-08T08:41:39.621Z,11.17
2017-07-08T08:44:07.968Z,10.47
2017-07-08T08:46:36.315Z,9.80
2017-07-08T08:49:05.406Z,9.40
2017-07-08T08:51:33.815Z,10.10
2017-07-08T08:54:02.149Z,10.73
2017-07-08T08:56:30.833Z,10.80
2017-07-08T08:58:59.230Z,10.50
2017-07-08T09:01:27.590Z,10.87
2017-07-08T09:03:56.241Z,8.60
2017-07-08T09:06:24.595Z,8.70
2017-07-08T09:08:52.929Z,8.93
2017-07-08T09:11:22.503Z,8.60
2017-07-08T09:13:50.853Z,8.30
2017-07-08T09:16:19.201Z,7.70
2017-07-08T09:18:48.603Z,7.90
2017-07-08T09:21:16.948Z,8.07
2017-07-08T09:23:45.328Z,7.60
2017-07-08T09:26:14.279Z,8.03
2017-07-08T09:28:42.652Z,6.57
2017-07-08T09:31:10.984Z,6.83
2017-07-08T09:33:40.135Z,7.00
2017-07-08T09:36:08.507Z,6.87
2017-07-08T09:38:36.854Z,7.53
2017-07-08T09:41:05.545Z,7.30
2017-07-08T09:43:33.886Z,7.73
2017-07-08T09:46:02.312Z,7.40
2017-07-08T09:48:30.988Z,6.33
2017-07-08T09:50:59.463Z,5.67
2017-07-08T09:53:27.835Z,5.77
2017-07-08T09:55:56.671Z,6.80
2017-07-08T09:58:25.095Z,5.90
2017-07-08T10:00:53.568Z,6.60
2017-07-08T10:03:22.248Z,5.53
2017-07-08T10:05:50.661Z,5.80
2017-07-08T10:08:19.071Z,6.30
2017-07-08T10:10:47.744Z,5.03
2017-07-08T10:13:16.117Z,5.03
2017-07-08T10:15:45.294Z,5.50
2017-07-08T10:18:14.266Z,4.90
2017-07-08T10:20:42.618Z,5.50
2017-07-08T10:23:10.978Z,5.40
2017-07-08T10:25:39.692Z,5.80
2017-07-08T10:28:08.075Z,5.07
2017-07-08T10:30:36.476Z,5.40
2017-07-08T10:33:05.165Z,6.10
2017-07-08T10:35:33.606Z,5.30
2017-07-08T10:38:02.017Z,5.53
2017-07-08T10:40:30.992Z,5.30
2017-07-08T10:42:59.357Z,5.03
2017-07-08T10:45:27.713Z,4.97
2017-07-08T10:47:56.667Z,5.27
2017-07-08T10:50:25.009Z,4.10
2017-07-08T10:52:53.377Z,4.20
2017-07-08T10:55:22.077Z,4.67
2017-07-08T10:57:50.465Z,4.40
2017-07-08T11:00:18.848Z,4.70
2017-07-08T11:02:48.132Z,4.47
2017-07-08T11:05:16.472Z,3.63
2017-07-08T11:07:44.828Z,4.50
2017-07-08T11:10:13.783Z,5.10
2017-07-08T11:12:42.179Z,4.70
2017-07-08T11:15:10.550Z,4.90
2017-07-08T11:17:39.441Z,4.90
2017-07-08T11:20:07.912Z,4.50
2017-07-08T11:22:36.264Z,4.83
2017-07-08T11:25:05.513Z,4.20
2017-07-08T11:27:33.862Z,5.10
2017-07-08T11:30:03.030Z,5.27
2017-07-08T11:32:31.881Z,6.23
2017-07-08T11:35:00.278Z,5.33
2017-07-08T11:37:28.771Z,5.50
2017-07-08T11:39:57.436Z,4.87
2017-07-08T11:42:25.885Z,5.03
2017-07-08T11:44:54.274Z,5.10
2017-07-08T11:47:23.412Z,4.80
2017-07-08T11:49:51.763Z,4.40
2017-07-08T11:52:20.134Z,5.60
2017-07-08T11:54:48.917Z,4.70
2017-07-08T11:57:17.272Z,4.73
2017-07-08T11:59:46.449Z,5.40
2017-07-08T12:02:15.442Z,4.80
2017-07-08T12:04:43.816Z,5.50
2017-07-08T12:07:12.136Z,4.77
2017-07-08T12:09:41.060Z,5.17
2017-07-08T12:12:09.431Z,5.90
2017-07-08T12:14:37.820Z,6.73
2017-07-08T12:17:06.516Z,6.10
2017-07-08T12:19:34.921Z,7.27
2017-07-08T12:22:03.327Z,7.10
2017-07-08T12:24:32.735Z,7.30
2017-07-08T12:27:01.082Z,8.27
2017-07-08T12:29:29.540Z,7.67
2017-07-08T12:31:58.391Z,8.13
2017-07-08T12:34:26.775Z,7.63
2017-07-08T12:36:55.136Z,7.53
2017-07-08T12:39:23.823Z,6.70
2017-07-08T12:41:52.192Z,6.50
2017-07-08T12:44:21.439Z,6.63
2017-07-08T12:46:50.053Z,5.90
2017-07-08T12:49:18.415Z,6.17
2017-07-08T12:51:46.860Z,6.20
2017-07-08T12:54:15.916Z,5.70
2017-07-08T12:56:44.309Z,5.50
2017-07-08T12:59:13.483Z,6.20
2017-07-08T13:01:42.435Z,5.43
2017-07-08T13:04:10.857Z,5.23
2017-07-08T13:06:39.267Z,5.60
2017-07-08T13:09:08.876Z,5.47
2017-07-08T13:11:37.227Z,5.03
2017-07-08T13:14:05.612Z,5.97
2017-07-08T13:16:34.559Z,5.50
2017-07-08T13:19:03.010Z,5.37
2017-07-08T13:21:31.393Z,5.83
2017-07-08T13:24:00.927Z,5.30
2017-07-08T13:26:29.326Z,5.10
2017-07-08T13:28:57.724Z,6.20
2017-07-08T13:31:26.526Z,5.87
2017-07-08T13:33:54.912Z,5.80
2017-07-08T13:36:23.284Z,6.77
2017-07-08T13:38:52.058Z,6.03
2017-07-08T13:41:20.432Z,6.47
2017-07-08T13:43:48.797Z,5.23
2017-07-08T13:46:17.566Z,6.20
2017-07-08T13:48:45.946Z,5.83
2017-07-08T13:51:14.375Z,4.57
2017-07-08T13:53:43.096Z,5.00
2017-07-08T13:56:11.500Z,4.80
2017-07-08T13:58:39.859Z,5.83
2017-07-08T14:01:08.710Z,5.90
2017-07-08T14:03:37.083Z,5.77
2017-07-08T14:06:05.452Z,6.13
2017-07-08T14:08:34.300Z,6.77
2017-07-08T14:11:02.698Z,7.70
2017-07-08T14:13:31.115Z,7.17
2017-07-08T14:15:59.978Z,7.40
2017-07-08T14:18:28.378Z,6.73
2017-07-08T14:20:56.741Z,6.73
2017-07-08T14:23:25.638Z,7.70
2017-07-08T14:25:54.062Z,7.83
2017-07-08T14:28:22.439Z,7.47
2017-07-08T14:30:51.846Z,7.73
2017-07-08T14:33:20.229Z,7.30
2017-07-08T14:35:48.609Z,7.07
2017-07-08T14:38:17.306Z,7.93
2017-07-08T14:40:45.713Z,8.20
2017-07-08T14:43:14.167Z,8.37
2017-07-08T14:45:43.380Z,7.67
2017-07-08T14:48:11.780Z,7.40
2017-07-08T14:50:40.167Z,8.40
2017-07-08T14:53:09.034Z,6.90
2017-07-08T14:55:37.387Z,7.53
2017-07-08T14:58:05.751Z,6.90
2017-07-08T15:00:34.372Z,6.33
2017-07-08T15:03:02.775Z,7.83
2017-07-08T15:05:31.136Z,7.40
2017-07-08T15:07:59.896Z,6.93
2017-07-08T15:10:28.312Z,7.90
2017-07-08T15:12:56.752Z,6.97
2017-07-08T15:15:26.489Z,7.17
2017-07-08T15:17:54.871Z,6.33
2017-07-08T15:20:23.244Z,7.33
2017-07-08T15:22:51.903Z,6.90
2017-07-08T15:25:21.090Z,7.00
2017-07-08T15:27:49.459Z,6.43
2017-07-08T15:30:18.494Z,5.80
2017-07-08T15:32:46.891Z,5.93
2017-07-08T15:35:15.299Z,5.43
2017-07-08T15:37:43.956Z,6.63
2017-07-08T15:40:12.379Z,5.53
2017-07-08T15:42:40.798Z,5.30
2017-07-08T15:45:09.587Z,5.40
2017-07-08T15:47:38.003Z,5.33
2017-07-08T15:50:06.423Z,4.93
2017-07-08T15:52:35.233Z,4.30
2017-07-08T15:55:03.614Z,5.10
2017-07-08T15:57:32.002Z,4.47
2017-07-08T16:00:00.918Z,4.70
2017-07-08T16:02:29.312Z,5.13
2017-07-08T16:04:57.686Z,5.33
2017-07-08T16:07:26.340Z,5.20
2017-07-08T16:09:54.755Z,6.87
2017-07-08T16:12:23.112Z,4.20
2017-07-08T16:14:51.988Z,4.50
2017-07-08T16:17:20.345Z,5.00
2017-07-08T16:19:49.476Z,4.30
2017-07-08T16:22:18.150Z,4.10
2017-07-08T16:24:46.563Z,4.53
2017-07-08T16:27:14.913Z,4.30
2017-07-08T16:29:43.694Z,4.67
2017-07-08T16:32:12.060Z,4.00
2017-07-08T16:34:41.163Z,3.57
2017-07-08T16:37:10.698Z,4.00
2017-07-08T16:39:39.019Z,4.90
2017-07-08T16:42:07.371Z,4.50
2017-07-08T16:44:36.013Z,4.23
2017-07-08T16:47:04.368Z,4.20
2017-07-08T16:49:32.803Z,4.40
2017-07-08T16:52:01.464Z,4.00
2017-07-08T16:54:29.841Z,4.90
2017-07-08T16:56:58.243Z,3.80
2017-07-08T16:59:27.000Z,4.30
2017-07-08T17:01:56.123Z,4.77
2017-07-08T17:04:24.495Z,5.07
2017-07-08T17:06:53.169Z,5.80
2017-07-08T17:09:21.512Z,4.67
2017-07-08T17:11:49.870Z,3.63
2017-07-08T17:14:19.456Z,4.53
2017-07-08T17:16:47.802Z,3.40
2017-07-08T17:19:16.142Z,3.20
2017-07-08T17:21:45.091Z,3.40
2017-07-08T17:24:13.470Z,3.27
2017-07-08T17:26:41.817Z,3.40
2017-07-08T17:29:10.449Z,3.43
2017-07-08T17:31:38.774Z,3.60
2017-07-08T17:34:07.101Z,3.47
2017-07-08T17:36:35.788Z,3.53
2017-07-08T17:39:04.150Z,4.40
2017-07-08T17:41:33.295Z,4.40
2017-07-08T17:44:02.405Z,3.20
2017-07-08T17:46:30.735Z,3.67
2017-07-08T17:48:59.086Z,3.10
2017-07-08T17:51:27.783Z,3.77
2017-07-08T17:53:56.122Z,4.40
2017-07-08T17:56:24.475Z,3.10
2017-07-08T17:58:53.133Z,3.67
2017-07-08T18:01:21.498Z,4.27
2017-07-08T18:03:50.585Z,5.23
2017-07-08T18:06:19.554Z,4.13
2017-07-08T18:08:47.921Z,4.87
2017-07-08T18:11:16.275Z,3.53
2017-07-08T18:13:44.943Z,4.20
2017-07-08T18:16:13.286Z,4.00
2017-07-08T18:18:41.642Z,4.20
2017-07-08T18:21:10.293Z,5.10
2017-07-08T18:23:38.624Z,4.40
2017-07-08T18:26:06.989Z,4.70
2017-07-08T18:28:35.790Z,3.60
2017-07-08T18:31:04.143Z,5.07
2017-07-08T18:33:32.489Z,4.80
2017-07-08T18:36:01.191Z,4.33
2017-07-08T18:38:29.530Z,5.00
2017-07-08T18:40:57.871Z,5.60
2017-07-08T18:43:26.650Z,5.30
2017-07-08T18:45:54.998Z,4.17
2017-07-08T18:48:24.118Z,3.90
2017-07-08T18:50:52.958Z,3.93
2017-07-08T18:53:21.276Z,4.23
2017-07-08T18:55:49.630Z,4.33
2017-07-08T18:58:18.605Z,4.23
2017-07-08T19:00:46.937Z,3.83
2017-07-08T19:03:15.290Z,6.80
2017-07-08T19:05:43.989Z,4.80
2017-07-08T19:08:12.344Z,4.67
2017-07-08T19:10:41.460Z,4.27
2017-07-08T19:13:10.386Z,4.40
2017-07-08T19:15:38.721Z,5.40
2017-07-08T19:18:07.070Z,5.00
2017-07-08T19:20:35.724Z,8.50
2017-07-08T19:23:04.052Z,4.83
2017-07-08T19:25:32.397Z,4.60
2017-07-08T19:28:01.141Z,4.80
2017-07-08T19:30:29.507Z,4.27
2017-07-08T19:32:58.594Z,4.57
2017-07-08T19:35:27.264Z,5.10
2017-07-08T19:37:55.653Z,5.40
2017-07-08T19:40:23.985Z,4.70
2017-07-08T19:42:52.614Z,5.33
2017-07-08T19:45:20.982Z,5.13
2017-07-08T19:47:49.320Z,5.10
2017-07-08T19:50:18.096Z,4.73
2017-07-08T19:52:46.426Z,5.27
2017-07-08T19:55:14.764Z,5.00
2017-07-08T19:57:43.763Z,5.53
2017-07-08T20:00:12.134Z,5.13
2017-07-08T20:02:40.465Z,6.30
2017-07-08T20:05:09.124Z,7.77
2017-07-08T20:07:37.517Z,6.57
2017-07-08T20:10:05.909Z,5.90
2017-07-08T20:12:34.647Z,5.90
2017-07-08T20:15:03.001Z,6.00
2017-07-08T20:17:31.345Z,5.90
2017-07-08T20:20:00.132Z,6.30
2017-07-08T20:22:28.494Z,5.90
2017-07-08T20:24:56.839Z,6.07
2017-07-08T20:27:25.487Z,5.77
2017-07-08T20:29:53.825Z,6.50
2017-07-08T20:32:22.173Z,6.50
2017-07-08T20:34:51.607Z,6.50
2017-07-08T20:37:19.954Z,6.30
2017-07-08T20:39:48.299Z,5.60
2017-07-08T20:42:17.236Z,5.60
2017-07-08T20:44:45.607Z,5.87
2017-07-08T20:47:14.741Z,5.50
2017-07-08T20:49:43.410Z,5.50
2017-07-08T20:52:11.771Z,5.47
2017-07-08T20:54:40.112Z,5.70
2017-07-08T20:57:08.762Z,5.43
2017-07-08T20:59:37.102Z,5.27
2017-07-08T21:02:05.450Z,4.83
2017-07-08T21:04:34.294Z,4.20
2017-07-08T21:07:02.657Z,4.30
2017-07-08T21:09:31.011Z,4.10
2017-07-08T21:11:59.985Z,4.10
2017-07-08T21:14:28.350Z,4.10
2017-07-08T21:16:56.709Z,4.53
2017-07-08T21:19:25.476Z,4.13
2017-07-08T21:21:53.828Z,4.40
2017-07-08T21:24:22.198Z,4.33
2017-07-08T21:26:51.164Z,4.70
2017-07-08T21:29:19.648Z,5.00
2017-07-08T21:31:48.011Z,4.90
2017-07-08T21:34:16.646Z,4.73
2017-07-08T21:36:44.992Z,4.60
2017-07-08T21:39:13.326Z,4.43
2017-07-08T21:41:42.253Z,4.40
2017-07-08T21:44:10.595Z,5.67
2017-07-08T21:46:39.693Z,3.93
2017-07-08T21:49:09.296Z,4.40
2017-07-08T21:51:37.694Z,4.80
2017-07-08T21:54:06.805Z,5.00
2017-07-08T21:56:35.512Z,5.40
2017-07-08T21:59:03.862Z,4.77
2017-07-08T22:01:32.206Z,4.50
2017-07-08T22:04:00.881Z,4.13
2017-07-08T22:06:29.250Z,5.60
2017-07-08T22:08:57.593Z,4.90
2017-07-08T22:11:26.487Z,5.10
2017-07-08T22:13:54.833Z,4.47
2017-07-08T22:16:23.953Z,5.20
2017-07-08T22:18:52.598Z,4.87
2017-07-08T22:21:20.947Z,5.27
2017-07-08T22:23:49.292Z,5.00
2017-07-08T22:26:17.978Z,4.50
2017-07-08T22:28:46.310Z,4.47
2017-07-08T22:31:14.657Z,4.27
2017-07-08T22:33:43.387Z,5.30
2017-07-08T22:36:11.758Z,4.33
2017-07-08T22:38:40.088Z,4.40
2017-07-08T22:41:08.889Z,4.70
2017-07-08T22:43:37.240Z,4.03
2017-07-08T22:46:06.379Z,4.60
2017-07-08T22:48:35.067Z,4.60
2017-07-08T22:51:03.430Z,4.20
2017-07-08T22:53:31.794Z,4.77
2017-07-08T22:56:01.000Z,5.90
2017-07-08T22:58:29.348Z,4.50
2017-07-08T23:00:58.482Z,4.33
2017-07-08T23:03:27.141Z,4.27
2017-07-08T23:05:56.297Z,4.83
2017-07-08T23:08:24.635Z,4.80
2017-07-08T23:10:53.259Z,4.20
2017-07-08T23:13:21.616Z,4.10
2017-07-08T23:15:49.959Z,4.60
2017-07-08T23:18:19.480Z,4.30
2017-07-08T23:20:47.815Z,5.07
2017-07-08T23:23:16.144Z,4.70
2017-07-08T23:25:44.909Z,4.83
2017-07-08T23:28:14.024Z,4.80
2017-07-08T23:30:42.362Z,4.67
2017-07-08T23:33:11.077Z,4.50
2017-07-08T23:35:39.448Z,4.83
2017-07-08T23:38:07.801Z,4.70
2017-07-08T23:40:36.469Z,5.00
2017-07-08T23:43:04.834Z,5.27
2017-07-08T23:45:33.183Z,5.40
2017-07-08T23:48:01.930Z,4.83
2017-07-08T23:50:30.249Z,5.90
2017-07-08T23:52:58.595Z,5.17
2017-07-08T23:55:27.408Z,5.20
2017-07-08T23:57:55.787Z,5.00
